Time;durP1;ratioP1;P1;durP2;ratioP2;P2;SDS_P1;SDS_P2;PMS_P1;PMS_P2;Temp;Humidity;BMP_temperature;BMP_pressure;BME280_temperature;BME280_humidity;BME280_pressure;Samples;Min_cycle;Max_cycle;Signal;HPM_P1;HPM_P2
2021/12/27 00:01:04;;;;;;;58.38;29.25;;;;;;;-145.67;100.00;66521.78;5004266;28;20041;-74
2021/12/27 00:03:30;;;;;;;63.40;29.77;;;;;;;-145.67;100.00;66521.78;5000560;28;20237;-74
2021/12/27 00:05:55;;;;;;;63.33;30.65;;;;;;;-145.67;100.00;66521.78;4995074;28;20382;-74
2021/12/27 00:08:23;;;;;;;63.63;31.33;;;;;;;-145.67;100.00;66521.78;4995764;28;20052;-74
2021/12/27 00:10:50;;;;;;;59.90;29.85;;;;;;;-145.67;100.00;66521.78;4999497;28;20036;-74
2021/12/27 00:13:15;;;;;;;66.55;30.70;;;;;;;-145.67;100.00;66521.78;4996094;28;20040;-74
2021/12/27 00:15:43;;;;;;;66.13;31.63;;;;;;;-145.67;100.00;66521.78;4994617;28;20030;-71
2021/12/27 00:18:09;;;;;;;66.63;32.47;;;;;;;-145.67;100.00;66521.78;4994163;28;20021;-72
2021/12/27 00:20:35;;;;;;;68.10;31.02;;;;;;;-145.67;100.00;66521.78;4994664;28;20040;-72
2021/12/27 00:23:00;;;;;;;72.90;31.95;;;;;;;-145.67;100.00;66521.78;5003186;28;20045;-72
2021/12/27 00:25:28;;;;;;;83.85;34.05;;;;;;;-145.67;100.00;66521.78;4994356;28;20029;-72
2021/12/27 00:27:53;;;;;;;75.95;35.13;;;;;;;-145.67;100.00;66521.78;4992828;28;20029;-72
2021/12/27 00:30:20;;;;;;;74.50;32.53;;;;;;;-145.67;100.00;66521.78;4993978;28;20501;-72
2021/12/27 00:32:46;;;;;;;76.57;35.63;;;;;;;-145.67;100.00;66521.78;4994145;28;20053;-72
2021/12/27 00:35:18;;;;;;;78.30;34.80;;;;;;;-145.67;100.00;66521.78;4993794;28;20430;-72
2021/12/27 00:37:46;;;;;;;88.05;34.63;;;;;;;-145.67;100.00;66521.78;4993837;28;20299;-72
2021/12/27 00:40:12;;;;;;;79.88;34.55;;;;;;;-145.67;100.00;66521.78;4994083;28;20030;-72
2021/12/27 00:42:38;;;;;;;80.68;35.75;;;;;;;-145.67;100.00;66521.78;5010288;28;20456;-71
2021/12/27 00:45:04;;;;;;;77.85;35.33;;;;;;;-145.67;100.00;66521.78;5004631;28;20037;-71
2021/12/27 00:47:30;;;;;;;81.43;35.80;;;;;;;-145.67;100.00;66521.78;4998190;28;20036;-71
2021/12/27 00:49:56;;;;;;;82.97;35.42;;;;;;;-145.67;100.00;66521.78;4997294;28;20569;-72
2021/12/27 00:52:22;;;;;;;91.85;36.67;;;;;;;-145.67;100.00;66521.78;4997921;28;20047;-72
2021/12/27 00:54:47;;;;;;;91.10;36.65;;;;;;;-145.67;100.00;66521.78;5001892;28;20133;-72
2021/12/27 00:57:13;;;;;;;86.53;35.90;;;;;;;-145.67;100.00;66521.78;4998144;28;20087;-71
2021/12/27 00:59:38;;;;;;;100.75;39.22;;;;;;;-145.67;100.00;66521.78;4997482;28;20376;-72
2021/12/27 01:02:04;;;;;;;81.05;36.38;;;;;;;-145.67;100.00;66521.78;5012607;28;20033;-72
2021/12/27 01:04:32;;;;;;;87.00;37.08;;;;;;;-145.67;100.00;66521.78;4997253;28;20147;-71
2021/12/27 01:06:57;;;;;;;92.35;37.10;;;;;;;-145.67;100.00;66521.78;5011569;28;20555;-72
2021/12/27 01:09:43;;;;;;;95.40;38.05;;;;;;;-145.67;100.00;66521.78;4997487;28;20041;-72
2021/12/27 01:15:09;;;;;;;88.72;36.20;;;;;;;-145.67;100.00;66521.78;4997433;28;20569;-72
2021/12/27 01:17:39;;;;;;;87.90;38.90;;;;;;;-145.67;100.00;66521.78;4995513;28;20457;-71
2021/12/27 01:20:11;;;;;;;87.28;37.92;;;;;;;-145.67;100.00;66521.78;4989740;28;20133;-72
2021/12/27 01:22:36;;;;;;;101.05;39.90;;;;;;;-145.67;100.00;66521.78;5003404;28;20304;-72
2021/12/27 01:25:03;;;;;;;87.70;37.47;;;;;;;-145.67;100.00;66521.78;4995388;28;20045;-72
2021/12/27 01:27:28;;;;;;;95.05;37.95;;;;;;;-145.67;100.00;66521.78;4995360;28;20536;-72
2021/12/27 01:29:54;;;;;;;88.95;37.55;;;;;;;-145.67;100.00;66521.78;5000334;28;20058;-72
2021/12/27 01:32:20;;;;;;;90.43;37.40;;;;;;;-145.67;100.00;66521.78;4996774;28;20065;-72
2021/12/27 01:34:46;;;;;;;97.60;38.35;;;;;;;-145.67;100.00;66521.78;4995776;28;20099;-72
2021/12/27 01:37:12;;;;;;;100.72;39.33;;;;;;;-145.67;100.00;66521.78;4996432;28;20615;-72
2021/12/27 01:39:38;;;;;;;95.20;38.80;;;;;;;-145.67;100.00;66521.78;4996697;28;20319;-72
2021/12/27 01:42:04;;;;;;;88.47;37.58;;;;;;;-145.67;100.00;66521.78;5000028;28;20669;-72
2021/12/27 01:44:29;;;;;;;98.53;38.63;;;;;;;-145.67;100.00;66521.78;4987416;28;20505;-72
2021/12/27 01:46:57;;;;;;;95.20;38.30;;;;;;;-145.67;100.00;66521.78;5006219;28;20042;-72
2021/12/27 01:49:23;;;;;;;101.07;40.67;;;;;;;-145.67;100.00;66521.78;4994499;28;20076;-72
2021/12/27 01:51:49;;;;;;;105.50;41.15;;;;;;;-145.67;100.00;66521.78;4995298;28;20101;-72
2021/12/27 01:54:14;;;;;;;89.90;38.95;;;;;;;-145.67;100.00;66521.78;4995753;28;20033;-71
2021/12/27 01:56:40;;;;;;;93.47;39.22;;;;;;;-145.67;100.00;66521.78;4996329;28;20071;-72
2021/12/27 01:59:05;;;;;;;93.65;39.03;;;;;;;-145.67;100.00;66521.78;5010844;28;20049;-72
2021/12/27 02:01:33;;;;;;;83.68;37.97;;;;;;;-145.67;100.00;66521.78;4996124;28;20038;-72
2021/12/27 02:03:59;;;;;;;86.63;37.70;;;;;;;-145.67;100.00;66521.78;4995227;28;20042;-72
2021/12/27 02:06:25;;;;;;;100.05;39.22;;;;;;;-145.67;100.00;66521.78;4996396;28;20452;-71
2021/12/27 02:08:51;;;;;;;87.45;38.30;;;;;;;-145.67;100.00;66521.78;4994376;28;20575;-72
2021/12/27 02:11:20;;;;;;;77.70;35.85;;;;;;;-145.67;100.00;66521.78;5011157;28;20067;-71
2021/12/27 02:13:46;;;;;;;88.13;38.92;;;;;;;-145.67;100.00;66521.78;5006199;28;20063;-71
2021/12/27 02:16:20;;;;;;;93.47;38.05;;;;;;;-145.67;100.00;66521.78;4994186;28;20521;-72
2021/12/27 02:18:46;;;;;;;95.47;38.90;;;;;;;-145.67;100.00;66521.78;4995467;28;20493;-72
2021/12/27 02:21:12;;;;;;;88.82;36.80;;;;;;;-145.67;100.00;66521.78;5011084;28;20041;-72
2021/12/27 02:23:40;;;;;;;84.75;36.70;;;;;;;-145.67;100.00;66521.78;4996275;28;20060;-72
2021/12/27 02:26:06;;;;;;;90.90;38.38;;;;;;;-145.67;100.00;66521.78;4996100;28;20033;-72
2021/12/27 02:28:32;;;;;;;89.25;38.88;;;;;;;-145.67;100.00;66521.78;5005352;28;20041;-71
2021/12/27 02:30:57;;;;;;;84.97;38.00;;;;;;;-145.67;100.00;66521.78;5010646;28;20173;-71
2021/12/27 02:33:23;;;;;;;77.88;36.38;;;;;;;-145.67;100.00;66521.78;4994786;28;20493;-72
2021/12/27 02:35:57;;;;;;;83.28;37.50;;;;;;;-145.67;100.00;66521.78;5010388;28;20125;-72
2021/12/27 02:38:26;;;;;;;86.65;37.40;;;;;;;-145.67;100.00;66521.78;5005204;28;20041;-71
2021/12/27 02:40:51;;;;;;;87.85;36.88;;;;;;;-145.67;100.00;66521.78;5001141;28;20037;-71
2021/12/27 02:43:19;;;;;;;84.03;36.45;;;;;;;-145.67;100.00;66521.78;5010389;28;20168;-71
2021/12/27 02:45:58;;;;;;;88.82;36.60;;;;;;;-145.67;100.00;66521.78;5004672;28;20036;-71
2021/12/27 02:48:28;;;;;;;97.72;37.08;;;;;;;-145.67;100.00;66521.78;4998383;28;20247;-71
2021/12/27 02:50:55;;;;;;;88.53;37.55;;;;;;;-145.67;100.00;66521.78;4995409;28;20034;-72
2021/12/27 02:53:23;;;;;;;108.45;39.20;;;;;;;-145.67;100.00;66521.78;4995104;28;20094;-71
2021/12/27 02:55:49;;;;;;;85.45;38.35;;;;;;;-145.67;100.00;66521.78;4995395;28;20068;-71
2021/12/27 02:58:15;;;;;;;85.85;36.80;;;;;;;-145.67;100.00;66521.78;4994980;28;21672;-71
2021/12/27 03:00:44;;;;;;;86.82;37.53;;;;;;;-145.67;100.00;66521.78;5001262;28;20404;-72
2021/12/27 03:03:10;;;;;;;101.95;42.03;;;;;;;-145.67;100.00;66521.78;4994040;28;20042;-72
2021/12/27 03:05:35;;;;;;;114.30;45.65;;;;;;;-145.67;100.00;66521.78;5000345;28;20056;-71
2021/12/27 03:08:03;;;;;;;124.30;48.45;;;;;;;-145.67;100.00;66521.78;4995106;28;20486;-71
2021/12/27 03:10:33;;;;;;;132.40;48.75;;;;;;;-145.67;100.00;66521.78;4994987;28;20045;-71
2021/12/27 03:13:03;;;;;;;147.38;54.65;;;;;;;-145.67;100.00;66521.78;4994593;28;20614;-71
2021/12/27 03:15:28;;;;;;;128.40;50.85;;;;;;;-145.67;100.00;66521.78;5001028;28;20038;-71
2021/12/27 03:17:57;;;;;;;145.00;53.40;;;;;;;-145.67;100.00;66521.78;4994596;28;20339;-71
2021/12/27 03:20:25;;;;;;;139.88;52.15;;;;;;;-145.67;100.00;66521.78;5004254;28;20033;-72
2021/12/27 03:22:51;;;;;;;130.13;51.70;;;;;;;-145.67;100.00;66521.78;4994470;28;20084;-71
2021/12/27 03:25:19;;;;;;;131.23;49.28;;;;;;;-145.67;100.00;66521.78;4994638;28;20029;-71
2021/12/27 03:27:46;;;;;;;140.00;52.80;;;;;;;-145.67;100.00;66521.78;4994900;28;20248;-71
2021/12/27 03:30:17;;;;;;;138.93;53.10;;;;;;;-145.67;100.00;66521.78;4993912;28;20397;-71
2021/12/27 03:32:43;;;;;;;144.75;56.08;;;;;;;-145.67;100.00;66521.78;5004047;28;20030;-71
2021/12/27 03:35:13;;;;;;;146.73;53.95;;;;;;;-145.67;100.00;66521.78;4987396;28;20037;-71
2021/12/27 03:37:44;;;;;;;133.98;52.75;;;;;;;-145.67;100.00;66521.78;4994606;28;20134;-71
2021/12/27 03:40:11;;;;;;;145.75;55.80;;;;;;;-145.67;100.00;66521.78;4994547;28;20036;-71
2021/12/27 03:42:40;;;;;;;127.15;50.45;;;;;;;-145.67;100.00;66521.78;4994945;28;20126;-71
2021/12/27 03:45:06;;;;;;;146.07;51.45;;;;;;;-145.67;100.00;66521.78;5001056;28;20030;-71
2021/12/27 03:47:32;;;;;;;135.15;50.95;;;;;;;-145.67;100.00;66521.78;5000059;28;20022;-70
2021/12/27 03:50:00;;;;;;;124.13;50.45;;;;;;;-145.67;100.00;66521.78;5008694;28;20045;-71
2021/12/27 03:52:27;;;;;;;120.53;48.72;;;;;;;-145.67;100.00;66521.78;4999727;28;20026;-71
2021/12/27 03:54:53;;;;;;;131.23;50.95;;;;;;;-145.67;100.00;66521.78;4984181;28;20398;-71
2021/12/27 03:57:19;;;;;;;134.75;50.28;;;;;;;-145.67;100.00;66521.78;4994481;28;20029;-74
2021/12/27 04:00:15;;;;;;;117.60;48.38;;;;;;;-145.67;100.00;66521.78;4999751;28;20178;-74
2021/12/27 04:02:37;;;;;;;110.45;44.85;;;;;;;-145.67;100.00;66521.78;4994167;28;20520;-74
2021/12/27 04:05:04;;;;;;;112.53;44.38;;;;;;;-145.67;100.00;66521.78;4994285;28;20034;-75
2021/12/27 04:07:34;;;;;;;103.85;45.40;;;;;;;-145.67;100.00;66521.78;5009365;28;20041;-74
2021/12/27 04:09:59;;;;;;;121.35;46.15;;;;;;;-145.67;100.00;66521.78;4994282;28;20037;-74
2021/12/27 04:12:25;;;;;;;102.10;41.17;;;;;;;-145.67;100.00;66521.78;4993856;28;20685;-74
2021/12/27 04:14:50;;;;;;;99.03;39.10;;;;;;;-145.67;100.00;66521.78;4998526;28;20026;-74
2021/12/27 04:17:16;;;;;;;96.32;37.95;;;;;;;-145.67;100.00;66521.78;4997364;28;20972;-74
2021/12/27 04:19:41;;;;;;;91.07;36.65;;;;;;;-145.67;100.00;66521.78;4996201;28;20042;-74
2021/12/27 04:22:07;;;;;;;94.75;37.88;;;;;;;-145.67;100.00;66521.78;4999307;28;20041;-73
2021/12/27 04:24:35;;;;;;;97.10;36.40;;;;;;;-145.67;100.00;66521.78;4997981;28;20056;-73
2021/12/27 04:27:02;;;;;;;100.90;39.53;;;;;;;-145.67;100.00;66521.78;4999005;28;20111;-74
2021/12/27 04:29:28;;;;;;;91.47;36.65;;;;;;;-145.67;100.00;66521.78;4998458;28;20256;-74
2021/12/27 04:31:53;;;;;;;97.88;37.47;;;;;;;-145.67;100.00;66521.78;4997787;28;20034;-74
2021/12/27 04:34:19;;;;;;;98.93;38.60;;;;;;;-145.67;100.00;66521.78;4998805;28;20037;-74
2021/12/27 04:36:44;;;;;;;109.30;39.38;;;;;;;-145.67;100.00;66521.78;4998450;28;20478;-74
2021/12/27 04:39:10;;;;;;;99.18;36.85;;;;;;;-145.67;100.00;66521.78;4998006;28;20100;-74
2021/12/27 04:41:36;;;;;;;122.82;38.92;;;;;;;-145.67;100.00;66521.78;5003824;28;20061;-73
2021/12/27 04:44:01;;;;;;;126.78;40.30;;;;;;;-145.67;100.00;66521.78;4998007;28;20034;-74
2021/12/27 04:46:27;;;;;;;112.03;36.47;;;;;;;-145.67;100.00;66521.78;5007550;28;20171;-74
2021/12/27 04:48:55;;;;;;;121.78;37.83;;;;;;;-145.67;100.00;66521.78;5002993;28;20266;-74
2021/12/27 04:51:21;;;;;;;107.43;36.53;;;;;;;-145.67;100.00;66521.78;5003271;28;20045;-74
2021/12/27 04:53:48;;;;;;;116.15;37.13;;;;;;;-145.67;100.00;66521.78;5004353;28;20061;-74
2021/12/27 04:56:14;;;;;;;116.15;38.47;;;;;;;-145.67;100.00;66521.78;4997329;28;20038;-73
2021/12/27 04:58:45;;;;;;;110.28;40.53;;;;;;;-145.67;100.00;66521.78;4997613;28;20038;-74
2021/12/27 05:01:11;;;;;;;144.40;44.35;;;;;;;-145.67;100.00;66521.78;4997400;28;20634;-74
2021/12/27 05:03:37;;;;;;;117.88;39.55;;;;;;;-145.67;100.00;66521.78;4997674;28;20053;-73
2021/12/27 05:06:03;;;;;;;146.63;42.47;;;;;;;-145.67;100.00;66521.78;4998104;28;20116;-74
2021/12/27 05:08:28;;;;;;;145.80;43.22;;;;;;;-145.67;100.00;66521.78;4995896;28;20560;-74
2021/12/27 05:10:54;;;;;;;125.13;38.90;;;;;;;-145.67;100.00;66521.78;5001850;28;20774;-73
2021/12/27 05:13:20;;;;;;;103.78;37.92;;;;;;;-145.67;100.00;66521.78;4997307;28;20053;-73
2021/12/27 05:15:46;;;;;;;121.80;36.78;;;;;;;-145.67;100.00;66521.78;4997172;28;20033;-73
2021/12/27 05:18:12;;;;;;;132.02;37.40;;;;;;;-145.67;100.00;66521.78;5000979;28;20041;-74
2021/12/27 05:20:37;;;;;;;141.35;36.88;;;;;;;-145.67;100.00;66521.78;5001428;28;20677;-74
2021/12/27 05:23:04;;;;;;;130.30;37.75;;;;;;;-145.67;100.00;66521.78;4986883;28;20452;-74
2021/12/27 05:25:29;;;;;;;110.43;36.88;;;;;;;-145.67;100.00;66521.78;5002391;28;20098;-73
2021/12/27 05:27:55;;;;;;;157.27;40.28;;;;;;;-145.67;100.00;66521.78;4996930;28;20613;-73
2021/12/27 05:30:20;;;;;;;131.38;37.55;;;;;;;-145.67;100.00;66521.78;4996133;28;20049;-73
2021/12/27 05:32:47;;;;;;;139.23;39.50;;;;;;;-145.67;100.00;66521.78;5002553;28;20046;-74
2021/12/27 05:35:13;;;;;;;146.98;41.25;;;;;;;-145.67;100.00;66521.78;5011730;28;20047;-73
2021/12/27 05:37:39;;;;;;;155.57;44.83;;;;;;;-145.67;100.00;66521.78;5003996;28;20037;-73
2021/12/27 05:40:07;;;;;;;128.57;43.83;;;;;;;-145.67;100.00;66521.78;4996846;28;20041;-73
2021/12/27 05:42:36;;;;;;;187.20;52.38;;;;;;;-145.67;100.00;66521.78;5011839;28;20575;-74
2021/12/27 05:45:03;;;;;;;222.80;54.53;;;;;;;-145.67;100.00;66521.78;4996188;28;20383;-73
2021/12/27 05:47:31;;;;;;;158.05;48.78;;;;;;;-145.67;100.00;66521.78;4997362;28;20298;-74
2021/12/27 05:49:57;;;;;;;224.55;53.90;;;;;;;-145.67;100.00;66521.78;4996661;28;20056;-74
2021/12/27 05:52:22;;;;;;;223.30;54.90;;;;;;;-145.67;100.00;66521.78;4997337;28;20033;-74
2021/12/27 05:54:50;;;;;;;211.20;51.92;;;;;;;-145.67;100.00;66521.78;5001743;28;20543;-74
2021/12/27 05:57:16;;;;;;;193.70;52.55;;;;;;;-145.67;100.00;66521.78;4997151;28;20030;-74
2021/12/27 05:59:42;;;;;;;221.82;61.03;;;;;;;-145.67;100.00;66521.78;4997048;28;20434;-73
2021/12/27 06:02:07;;;;;;;195.45;56.47;;;;;;;-145.67;100.00;66521.78;4997108;28;20037;-74
2021/12/27 06:04:35;;;;;;;256.60;63.67;;;;;;;-145.67;100.00;66521.78;4994720;28;20493;-73
2021/12/27 06:07:03;;;;;;;203.55;60.70;;;;;;;-145.67;100.00;66521.78;4997039;28;20492;-75
2021/12/27 06:09:29;;;;;;;179.85;52.80;;;;;;;-145.67;100.00;66521.78;5012218;28;20190;-74
2021/12/27 06:11:54;;;;;;;209.82;52.67;;;;;;;-145.67;100.00;66521.78;5011082;28;20272;-74
2021/12/27 06:14:20;;;;;;;219.40;59.17;;;;;;;-145.67;100.00;66521.78;4996998;28;20367;-74
2021/12/27 06:16:46;;;;;;;192.27;55.55;;;;;;;-145.67;100.00;66521.78;4996895;28;20048;-74
2021/12/27 06:19:11;;;;;;;239.60;64.38;;;;;;;-145.67;100.00;66521.78;4990800;28;20119;-74
2021/12/27 06:21:37;;;;;;;190.95;54.90;;;;;;;-145.67;100.00;66521.78;4997295;28;20125;-74
2021/12/27 06:24:03;;;;;;;174.85;53.47;;;;;;;-145.67;100.00;66521.78;4996867;28;20401;-74
2021/12/27 06:26:29;;;;;;;255.90;55.72;;;;;;;-145.67;100.00;66521.78;4995905;28;20034;-74
2021/12/27 06:28:54;;;;;;;232.43;50.47;;;;;;;-145.67;100.00;66521.78;4996329;28;20044;-74
2021/12/27 06:31:20;;;;;;;199.23;51.08;;;;;;;-145.67;100.00;66521.78;4996517;28;20053;-73
2021/12/27 06:33:47;;;;;;;189.30;50.47;;;;;;;-145.67;100.00;66521.78;5001906;28;20366;-73
2021/12/27 06:36:12;;;;;;;171.18;48.83;;;;;;;-145.67;100.00;66521.78;4996714;28;20040;-74
2021/12/27 06:38:38;;;;;;;252.75;53.50;;;;;;;-145.67;100.00;66521.78;4985496;28;21918;-74
2021/12/27 06:41:09;;;;;;;255.90;56.38;;;;;;;-145.67;100.00;66521.78;4995055;28;20493;-74
2021/12/27 06:43:34;;;;;;;230.75;57.90;;;;;;;-145.67;100.00;66521.78;5000792;28;20053;-74
2021/12/27 06:46:00;;;;;;;210.93;62.70;;;;;;;-145.67;100.00;66521.78;4995185;28;20029;-73
2021/12/27 06:48:27;;;;;;;263.05;64.85;;;;;;;-145.67;100.00;66521.78;4996336;28;20057;-74
2021/12/27 06:50:52;;;;;;;248.25;61.58;;;;;;;-145.67;100.00;66521.78;4996304;28;20030;-74
2021/12/27 06:53:18;;;;;;;224.10;61.72;;;;;;;-145.67;100.00;66521.78;4994812;28;20347;-74
2021/12/27 06:55:45;;;;;;;222.55;56.90;;;;;;;-145.67;100.00;66521.78;5000614;28;20053;-74
2021/12/27 06:58:11;;;;;;;242.75;60.28;;;;;;;-145.67;100.00;66521.78;5010968;28;20037;-74
2021/12/27 07:00:36;;;;;;;217.80;62.03;;;;;;;-145.67;100.00;66521.78;5010422;28;20029;-74
2021/12/27 07:03:02;;;;;;;274.00;65.15;;;;;;;-145.67;100.00;66521.78;5005085;28;20041;-74
2021/12/27 07:05:28;;;;;;;223.90;63.28;;;;;;;-145.67;100.00;66521.78;5004754;28;20369;-74
2021/12/27 07:07:53;;;;;;;196.75;58.58;;;;;;;-145.67;100.00;66521.78;4996042;28;20049;-74
2021/12/27 07:10:19;;;;;;;193.38;61.45;;;;;;;-145.67;100.00;66521.78;4994815;28;20041;-74
2021/12/27 07:12:49;;;;;;;185.25;59.95;;;;;;;-145.67;100.00;66521.78;4995941;28;20033;-74
2021/12/27 07:15:15;;;;;;;216.45;62.22;;;;;;;-145.67;100.00;66521.78;4995589;28;20093;-74
2021/12/27 07:17:43;;;;;;;253.52;62.58;;;;;;;-145.67;100.00;66521.78;4995492;28;20045;-74
2021/12/27 07:20:11;;;;;;;275.75;66.78;;;;;;;-145.67;100.00;66521.78;4995151;28;20519;-74
2021/12/27 07:22:37;;;;;;;229.30;61.75;;;;;;;-145.67;100.00;66521.78;4995103;28;20029;-74
2021/12/27 07:25:03;;;;;;;201.18;60.67;;;;;;;-145.67;100.00;66521.78;5001373;28;20055;-74
2021/12/27 07:27:31;;;;;;;281.50;67.55;;;;;;;-145.67;100.00;66521.78;4990235;28;20096;-75
2021/12/27 07:29:59;;;;;;;252.93;64.15;;;;;;;-145.67;100.00;66521.78;4995490;28;21891;-73
2021/12/27 07:32:26;;;;;;;263.75;62.63;;;;;;;-145.67;100.00;66521.78;4995754;28;20421;-74
2021/12/27 07:34:52;;;;;;;206.55;58.58;;;;;;;-145.67;100.00;66521.78;4995248;28;20153;-73
2021/12/27 07:37:20;;;;;;;248.98;62.05;;;;;;;-145.67;100.00;66521.78;5009790;28;20025;-74
2021/12/27 07:39:46;;;;;;;270.77;59.72;;;;;;;-145.67;100.00;66521.78;4995681;28;20210;-74
2021/12/27 07:42:14;;;;;;;261.33;61.88;;;;;;;-145.67;100.00;66521.78;5000253;28;20178;-73
2021/12/27 07:44:44;;;;;;;244.95;60.05;;;;;;;-145.67;100.00;66521.78;4994773;28;20034;-74
2021/12/27 07:47:11;;;;;;;246.68;60.05;;;;;;;-145.67;100.00;66521.78;4998734;28;20570;-73
2021/12/27 07:49:37;;;;;;;231.32;61.83;;;;;;;-145.67;100.00;66521.78;4993471;28;20586;-74
2021/12/27 07:52:04;;;;;;;214.80;58.70;;;;;;;-145.67;100.00;66521.78;4993221;28;20034;-73
2021/12/27 07:54:29;;;;;;;269.73;62.75;;;;;;;-145.67;100.00;66521.78;4994655;28;20710;-74
2021/12/27 07:56:58;;;;;;;232.60;60.83;;;;;;;-145.67;100.00;66521.78;4995206;28;20371;-74
2021/12/27 07:59:24;;;;;;;232.52;62.35;;;;;;;-145.67;100.00;66521.78;4998455;28;20036;-74
2021/12/27 08:01:49;;;;;;;255.52;64.05;;;;;;;-145.67;100.00;66521.78;4995211;28;20026;-74
2021/12/27 08:04:17;;;;;;;244.65;62.47;;;;;;;-145.67;100.00;66521.78;4993941;28;20038;-73
2021/12/27 08:06:43;;;;;;;254.02;63.38;;;;;;;-145.67;100.00;66521.78;4994946;28;20029;-73
2021/12/27 08:09:11;;;;;;;281.33;66.53;;;;;;;-145.67;100.00;66521.78;4994900;28;20060;-74
2021/12/27 08:11:36;;;;;;;273.15;64.85;;;;;;;-145.67;100.00;66521.78;5000925;28;20379;-75
2021/12/27 08:14:07;;;;;;;300.33;68.05;;;;;;;-145.67;100.00;66521.78;4994838;28;20462;-75
2021/12/27 08:16:35;;;;;;;245.10;62.53;;;;;;;-145.67;100.00;66521.78;4993571;28;20416;-75
2021/12/27 08:19:00;;;;;;;219.88;60.83;;;;;;;-145.67;100.00;66521.78;4992550;28;20036;-75
2021/12/27 08:21:26;;;;;;;223.68;60.72;;;;;;;-145.67;100.00;66521.78;4991696;28;20025;-76
2021/12/27 08:23:55;;;;;;;257.73;63.13;;;;;;;-145.67;100.00;66521.78;4995290;28;20247;-75
2021/12/27 08:26:23;;;;;;;287.38;66.82;;;;;;;-145.67;100.00;66521.78;4992377;28;20026;-76
2021/12/27 08:28:52;;;;;;;376.75;71.50;;;;;;;-145.67;100.00;66521.78;4994427;28;20044;-76
2021/12/27 08:31:18;;;;;;;284.08;65.68;;;;;;;-145.67;100.00;66521.78;5003204;28;20050;-75
2021/12/27 08:33:43;;;;;;;270.63;64.90;;;;;;;-145.67;100.00;66521.78;5001731;28;20044;-75
2021/12/27 08:36:11;;;;;;;240.20;62.45;;;;;;;-145.67;100.00;66521.78;4992730;28;20832;-75
2021/12/27 08:38:37;;;;;;;216.57;59.17;;;;;;;-145.67;100.00;66521.78;5009678;28;20049;-74
2021/12/27 08:41:02;;;;;;;279.45;63.13;;;;;;;-145.67;100.00;66521.78;4995199;28;20695;-74
2021/12/27 08:43:29;;;;;;;230.57;58.17;;;;;;;-145.67;100.00;66521.78;5004831;28;20095;-75
2021/12/27 08:45:56;;;;;;;253.43;58.28;;;;;;;-145.67;100.00;66521.78;5008926;28;20044;-75
2021/12/27 08:48:21;;;;;;;232.25;53.40;;;;;;;-145.67;100.00;66521.78;4995317;28;20140;-74
2021/12/27 08:50:47;;;;;;;231.15;52.08;;;;;;;-145.67;100.00;66521.78;4987352;28;20107;-75
2021/12/27 08:53:15;;;;;;;215.07;52.78;;;;;;;-145.67;100.00;66521.78;5009139;28;20114;-75
2021/12/27 08:55:41;;;;;;;234.15;52.30;;;;;;;-145.67;100.00;66521.78;4994788;28;20048;-74
2021/12/27 08:58:06;;;;;;;245.25;53.58;;;;;;;-145.67;100.00;66521.78;4993715;28;20567;-74
2021/12/27 09:00:32;;;;;;;221.98;50.53;;;;;;;-145.67;100.00;66521.78;5009504;28;20029;-74
2021/12/27 09:02:59;;;;;;;194.90;50.45;;;;;;;-145.67;100.00;66521.78;4999665;28;20030;-74
2021/12/27 09:05:25;;;;;;;204.48;49.85;;;;;;;-145.67;100.00;66521.78;4997735;28;20437;-74
2021/12/27 09:07:51;;;;;;;249.35;54.85;;;;;;;-145.67;100.00;66521.78;4992598;28;20025;-74
2021/12/27 09:10:16;;;;;;;294.85;59.13;;;;;;;-145.67;100.00;66521.78;4998257;28;20123;-75
2021/12/27 09:12:43;;;;;;;305.08;63.42;;;;;;;-145.67;100.00;66521.78;5013419;28;20042;-75
2021/12/27 09:15:10;;;;;;;262.02;62.00;;;;;;;-145.67;100.00;66521.78;4997273;28;20191;-74
2021/12/27 09:17:35;;;;;;;257.92;62.03;;;;;;;-145.67;100.00;66521.78;4998175;28;20316;-74
2021/12/27 09:20:03;;;;;;;274.15;61.63;;;;;;;-145.67;100.00;66521.78;4997091;28;20030;-74
2021/12/27 09:22:29;;;;;;;220.68;60.33;;;;;;;-145.67;100.00;66521.78;5007705;28;20095;-74
2021/12/27 09:24:55;;;;;;;243.70;63.13;;;;;;;-145.67;100.00;66521.78;4997272;28;20033;-74
2021/12/27 09:27:20;;;;;;;278.52;68.45;;;;;;;-145.67;100.00;66521.78;4996580;28;20030;-74
2021/12/27 09:29:46;;;;;;;289.08;66.97;;;;;;;-145.67;100.00;66521.78;5012537;28;20096;-74
2021/12/27 09:32:15;;;;;;;257.08;64.70;;;;;;;-145.67;100.00;66521.78;4996907;28;20096;-74
2021/12/27 09:34:40;;;;;;;285.60;66.57;;;;;;;-145.67;100.00;66521.78;5012085;28;20220;-74
2021/12/27 09:37:06;;;;;;;298.27;67.75;;;;;;;-145.67;100.00;66521.78;5003500;28;20034;-74
2021/12/27 09:39:32;;;;;;;221.57;54.30;;;;;;;-145.67;100.00;66521.78;4997427;28;20033;-74
2021/12/27 09:42:00;;;;;;;208.35;48.13;;;;;;;-145.67;100.00;66521.78;5003391;28;20777;-72
2021/12/27 09:44:26;;;;;;;274.55;49.08;;;;;;;-145.67;100.00;66521.78;5011580;28;20033;-74
2021/12/27 09:46:51;;;;;;;242.85;47.78;;;;;;;-145.67;100.00;66521.78;5006281;28;20045;-74
2021/12/27 09:49:18;;;;;;;192.25;44.22;;;;;;;-145.67;100.00;66521.78;4997224;28;20108;-74
2021/12/27 09:51:45;;;;;;;217.68;45.53;;;;;;;-145.67;100.00;66521.78;4996533;28;20324;-73
2021/12/27 09:54:14;;;;;;;236.05;45.70;;;;;;;-145.67;100.00;66521.78;4997477;28;20076;-74
2021/12/27 09:56:41;;;;;;;204.90;46.25;;;;;;;-145.67;100.00;66521.78;5000304;28;20374;-74
2021/12/27 09:59:07;;;;;;;227.30;47.22;;;;;;;-145.67;100.00;66521.78;4996701;28;20029;-74
2021/12/27 10:01:35;;;;;;;231.73;47.08;;;;;;;-145.67;100.00;66521.78;4995023;28;20413;-74
2021/12/27 10:04:03;;;;;;;200.10;42.13;;;;;;;-145.67;100.00;66521.78;5005930;28;20080;-74
2021/12/27 10:06:29;;;;;;;237.88;47.05;;;;;;;-145.67;100.00;66521.78;4996925;28;20594;-73
2021/12/27 10:08:59;;;;;;;133.50;39.97;;;;;;;-145.67;100.00;66521.78;5011017;28;20319;-74
2021/12/27 10:11:27;;;;;;;228.10;49.03;;;;;;;-145.67;100.00;66521.78;5011589;28;20123;-73
2021/12/27 10:14:12;;;;;;;178.70;43.67;;;;;;;-145.67;100.00;66521.78;4996452;28;20490;-74
2021/12/27 10:16:40;;;;;;;216.18;46.85;;;;;;;-145.67;100.00;66521.78;4997185;28;20038;-75
2021/12/27 10:19:09;;;;;;;210.57;51.80;;;;;;;-145.67;100.00;66521.78;5011149;28;20029;-76
2021/12/27 10:21:34;;;;;;;202.55;48.05;;;;;;;-145.67;100.00;66521.78;4995490;28;20083;-75
2021/12/27 10:24:05;;;;;;;204.70;47.17;;;;;;;-145.67;100.00;66521.78;4995468;28;20169;-75
2021/12/27 10:26:31;;;;;;;203.00;45.25;;;;;;;-145.67;100.00;66521.78;4996769;28;20064;-75
2021/12/27 10:29:09;;;;;;;268.83;49.90;;;;;;;-145.67;100.00;66521.78;4999876;28;20029;-74
2021/12/27 10:31:58;;;;;;;189.30;41.97;;;;;;;-145.67;100.00;66521.78;5010758;28;20237;-74
2021/12/27 10:34:29;;;;;;;180.77;40.25;;;;;;;-145.67;100.00;66521.78;4995967;28;20037;-74
2021/12/27 10:37:00;;;;;;;140.13;39.45;;;;;;;-145.67;100.00;66521.78;4995955;28;20030;-74
2021/12/27 10:39:46;;;;;;;168.20;40.35;;;;;;;-145.67;100.00;66521.78;5001625;28;20234;-71
2021/12/27 10:42:15;;;;;;;150.38;39.22;;;;;;;-145.67;100.00;66521.78;4994184;28;20262;-71
2021/12/27 10:44:41;;;;;;;281.48;45.35;;;;;;;-145.67;100.00;66521.78;4999287;28;20049;-71
2021/12/27 10:47:34;;;;;;;214.88;43.88;;;;;;;-145.67;100.00;66521.78;5010151;28;20029;-71
2021/12/27 10:50:11;;;;;;;214.90;42.42;;;;;;;-145.67;100.00;66521.78;5005340;28;20096;-71
2021/12/27 10:52:55;;;;;;;192.65;41.10;;;;;;;-145.67;100.00;66521.78;4995791;28;20949;-72